Emiliano Bentancur

Olheiro - Wanderers
3 Abr 2027
Sábado
Processo

Personalidade

Adaptabilidade (11) Ambição (7) Controvérsia (13) Lealdade (7) Pressão (5) Profissionalismo (1) Espírito Esportivo (18) Temperamento (19)

Perfil

Estilo de Treinamento Democrático
Licença Continental C
Determinação 6
Gestão de Pessoas 5
Motivação 11
Disciplina 7
Satisfação no Trabalho
65%
Fadiga
0%
Função Olheiro
Salário 68.0K p/s
Contrato 14.03.2030

Desempenho

Comportamento Bom
Eficácia do Treinamento
21%
Desenvolvimento do Jogador
55%
Prevenção de Lesões
55%
Implementação Tática
35%

Eventos Recentes

Participou de uma reunião de recrutamento agora
Participou de uma reunião de recrutamento agora
Avaliou um jogador 7d atrás
Participou de uma reunião de recrutamento 7d atrás
Participou de uma reunião de recrutamento 7d atrás
Avaliou um jogador 7d atrás
Avaliou um jogador 14d atrás
Avaliou um jogador 14d atrás

Monitorando agora

95
Jogador Clube Status Habilidade Confiança Observado Última observação Último voto
Aune Heggebø West Bromwich Albion Ativo 128 / 129 40% 3 31.03.2027 -
Ekain Orobengoa Real Sociedad Ativo 120 / 122 40% 1 31.03.2027 -
Sam Greenwood Bristol City Ativo 109 / 108 40% 1 30.03.2027 -
Stephen Amankona Aduana Stars Ativo 89 / 86 40% 2 28.03.2027 -
Joe Gelhardt Hull City Ativo 127 / 125 40% 2 28.03.2027 -
Adnan Courtois KV Oostende Ativo 104 / 143 40% 3 22.03.2027 -
Will Lankshear Middlesbrough Ativo 138 / 118 40% 1 22.03.2027 -
Seidu Basit Ashanti Gold Ativo 96 / 104 40% 2 19.03.2027 -
Tom Cannon Sheffield United Ativo 115 / 147 40% 2 19.03.2027 -
Leo Castledine Middlesbrough Ativo 116 / 146 40% 1 18.03.2027 -
Job Ochieng Real Sociedad Ativo 117 / 91 40% 3 17.03.2027 -
Lorent Tolaj Plymouth Argyle Ativo 119 / 128 40% 3 17.03.2027 -
Niall Ennis Blackpool Ativo 108 / 99 40% 1 13.03.2027 -
Nico Paz Como Ativo 174 / 159 40% 1 13.03.2027 -
Mihailo Ivanović Millwall Ativo 108 / 125 40% 1 11.03.2027 -
Ramadan Mohsen Zamalek Ativo 125 / 108 40% 1 11.03.2027 -
Percy Erasmus SuperSport United Ativo 125 / 108 40% 1 09.03.2027 -
Fabrizio Cavegn Bristol Rovers Ativo 100 / 123 40% 1 08.03.2027 -
Tyreece Campbell Charlton Athletic Ativo 103 / 134 40% 1 08.03.2027 -
Camilo Durán Bloemfontein Celtic Ativo 121 / 125 40% 3 07.03.2027 -
Mathias Jørgensen Blackburn Rovers Ativo 110 / 109 40% 2 07.03.2027 -
Gonzalo Plata Dinamo Moscow Ativo 137 / 128 40% 2 05.03.2027 -
Hlompho Modiba Black Aces Ativo 106 / 90 40% 1 05.03.2027 -
Konan N'Dri Lecce Ativo 141 / 125 40% 1 02.03.2027 -
Cameron Archer Southampton Ativo 112 / 110 40% 1 02.03.2027 -
Bojan Radulović Huddersfield Town Ativo 103 / 122 40% 1 01.03.2027 -
Morgan Whittaker Middlesbrough Ativo 124 / 145 40% 1 28.02.2027 -
Tyrese Campbell Sheffield United Ativo 127 / 111 40% 1 28.02.2027 -
Richard Koné Queens Park Rangers Ativo 121 / 126 40% 1 27.02.2027 -
Jean-Luc Morin Tours Ativo 137 / 151 40% 1 27.02.2027 -
Mohamed-Ali Cho Hull City Ativo 149 / 133 40% 2 23.02.2027 -
Rumarn Burrell Queens Park Rangers Ativo 128 / 141 40% 2 23.02.2027 -
Dom Ballard Leyton Orient Ativo 100 / 133 40% 1 22.02.2027 -
Peter Itodo Metalist Ativo 106 / 124 40% 1 09.02.2027 -
Brayan Gil Baltika Ativo 106 / 114 40% 1 07.02.2027 -
Kelly Saravanan Salford City Ativo 103 / 101 40% 1 31.01.2027 -
Kwadwo Obeng Junior Heart of Lions Ativo 86 / 89 40% 1 31.01.2027 -
Dale Taylor Blackpool Ativo 90 / 101 40% 1 30.01.2027 -
Iwan Morgan Grimsby Town Ativo 99 / 111 40% 1 30.01.2027 -
Mateo Fernández Angusht Ativo 67 / 66 40% 1 27.01.2027 -
José Martínes CSKA 1948 Ativo 106 / 121 40% 1 27.01.2027 -
Solly Khunyedi Bloemfontein Celtic Ativo 115 / 111 40% 1 26.01.2027 -
Paublo Jara Chelyabinsk Ativo 89 / 103 40% 1 26.01.2027 -
Yegor Golenkov Rostov Ativo 126 / 107 40% 1 24.01.2027 -
Luke Baartman Chippa United Ativo 117 / 111 40% 1 24.01.2027 -
Rodrigo Trejo Vorskla Ativo 100 / 79 40% 1 22.01.2027 -
Amos Inusah Wa All Stars Ativo 98 / 110 40% 1 22.01.2027 -
Fábio Tavares Newport County Ativo 83 / 102 40% 2 20.01.2027 -
Carlos Paraco Metalist Ativo 96 / 118 40% 1 20.01.2027 -
Favio Cabral Mitre Ativo 109 / 119 40% 1 11.01.2027 -
Antony Medrano Dobrudzha Ativo 101 / 86 40% 1 11.01.2027 -
Nicolás Cordero Aldosivi Ativo 131 / 127 40% 2 10.01.2027 -
Celso Sidney Cherno More Ativo 121 / 88 40% 1 10.01.2027 -
Alexander Díaz Deportivo Riestra Ativo 112 / 108 40% 5 08.01.2027 -
Matej Trusa DAC Dunajska Streda Ativo 134 / 122 40% 1 07.01.2027 -
Simone Rabbi Ravenna Ativo 105 / 122 40% 1 04.01.2027 -
Franko Kovačević Ferencvaros Ativo 136 / 122 40% 1 04.01.2027 -
Tomás O'Connor Gimnasia y Esgrima Ativo 132 / 135 40% 3 30.12.2026 -
Tomás Bottari Independiente Rivadavia Ativo 110 / 114 40% 1 30.12.2026 -
Diego Valencia Gornik Leczna Ativo 100 / 109 40% 1 29.12.2026 -
Martín Garay Tigre Ativo 125 / 120 40% 1 29.12.2026 -
Ibrahim Tarek Masr El Makasa Rejeitado 130 / 111 40% 3 21.12.2026 Rejeitar
David Buchta Radnicki 1923 Ativo 108 / 101 40% 1 21.12.2026 -
Ramiro Hernandes Belgrano Ativo 123 / 120 40% 3 29.11.2026 -
Roger Hinojo Espanyol Ativo 126 / 105 40% 1 27.11.2026 -
Ali Soliman Masr El Makasa Ativo 114 / 106 40% 2 25.11.2026 -
Rodrigo González Mitre Ativo 107 / 107 40% 1 25.11.2026 -
Santiago González Tigre Ativo 117 / 119 40% 1 22.11.2026 -
Tobías Leiva Estudiantes Ativo 116 / 111 40% 1 22.11.2026 -
Alex Luna Instituto Ativo 138 / 124 40% 1 19.11.2026 -
Fernando Martínez Central Córdoba SdE Ativo 130 / 108 40% 2 13.11.2026 -
Matías Giménez Rojas Argentinos Juniors Ativo 128 / 117 40% 2 13.11.2026 -
Siro Rosané Estudiantes Ativo 119 / 123 40% 1 10.11.2026 -
Thiago Calone All Boys Ativo 100 / 101 40% 1 07.11.2026 -
José Barreto Fehervar Ativo 97 / 122 40% 1 07.11.2026 Mais informações
Junior Hernández AIK Ativo 135 / 135 40% 2 06.11.2026 -
Rodrigo Herrera Newell's Old Boys Ativo 111 / 129 40% 1 06.11.2026 -
Angelo Gattermayer Wolfsberger AC Rejeitado 134 / 115 40% 1 03.11.2026 Mais informações
Valentín Depietri Talleres Ativo 115 / 111 40% 1 03.11.2026 -
Mduduzi Shabalala Kaizer Chiefs Ativo 106 / 132 40% 1 01.11.2026 -
Agustín Hausch Defensa y Justicia Ativo 107 / 126 40% 1 28.10.2026 -
Manuel Duarte Barracas Central Ativo 116 / 108 40% 2 25.10.2026 -
Franco Fagúndez Estudiantes Ativo 110 / 107 40% 1 25.10.2026 -
Joaquín Gho Argentinos Juniors Ativo 131 / 116 40% 2 24.10.2026 -
Maximiliano Meléndez Chacarita Juniors Ativo 123 / 116 40% 1 22.10.2026 -
Marcos López San Martín Ativo 126 / 132 40% 1 19.10.2026 -
Adrián Sánchez Belgrano Ativo 112 / 112 40% 1 19.10.2026 -
Iñaki Larthirigoyen San Telmo Ativo 115 / 119 40% 1 11.10.2026 -
Juan Pablo Barinaga Patronato Ativo 99 / 121 40% 1 10.10.2026 -
Vicente Poggi Godoy Cruz Ativo 127 / 115 40% 1 09.10.2026 -
Agustín Sández Rosario Central Ativo 129 / 133 40% 1 08.10.2026 -
Javier Altamirano Universidad de Chile Ativo 116 / 128 40% 1 08.10.2026 -
Enzo Avaro Mitre Ativo 122 / 110 40% 1 07.10.2026 -
Eric Meza Estudiantes Ativo 119 / 131 40% 1 05.10.2026 -
Santiago Toloza O'Higgins Ativo 115 / 122 40% 1 05.10.2026 -